createdAt,value
2022-09-23T00:02:10.940Z,4.44
2022-09-23T00:04:41.472Z,4.13
2022-09-23T00:07:09.890Z,4.25
2022-09-23T00:09:38.005Z,4.12
2022-09-23T00:12:09.032Z,4.05
2022-09-23T00:14:38.750Z,4.09
2022-09-23T00:17:07.210Z,4.22
2022-09-23T00:19:35.688Z,4.20
2022-09-23T00:22:05.667Z,4.30
2022-09-23T00:24:34.123Z,4.38
2022-09-23T00:27:02.575Z,4.33
2022-09-23T00:29:31.682Z,4.37
2022-09-23T00:31:59.837Z,4.15
2022-09-23T00:34:28.058Z,4.30
2022-09-23T00:36:56.889Z,4.27
2022-09-23T00:39:27.001Z,3.97
2022-09-23T00:41:55.212Z,4.06
2022-09-23T00:44:44.970Z,4.07
2022-09-23T00:47:17.930Z,4.07
2022-09-23T00:49:48.056Z,3.87
2022-09-23T00:52:20.398Z,3.92
2022-09-23T00:54:53.417Z,4.00
2022-09-23T00:57:22.369Z,4.11
2022-09-23T00:59:51.737Z,4.01
2022-09-23T01:02:21.978Z,4.12
2022-09-23T01:04:51.627Z,4.05
2022-09-23T01:07:19.856Z,3.88
2022-09-23T01:09:50.073Z,3.93
2022-09-23T01:12:37.910Z,3.95
2022-09-23T01:15:15.534Z,3.96
2022-09-23T01:17:52.843Z,4.02
2022-09-23T01:20:41.872Z,3.89
2022-09-23T01:23:29.697Z,3.88
2022-09-23T01:26:16.152Z,4.03
2022-09-23T01:29:08.664Z,3.85
2022-09-23T01:31:48.974Z,3.72
2022-09-23T01:34:24.509Z,3.74
2022-09-23T01:36:57.135Z,3.64
2022-09-23T01:39:36.143Z,3.54
2022-09-23T01:42:17.915Z,3.59
2022-09-23T01:44:52.288Z,3.54
2022-09-23T01:47:27.435Z,3.68
2022-09-23T01:50:00.108Z,3.49
2022-09-23T01:52:33.519Z,3.67
2022-09-23T01:55:08.674Z,3.81
2022-09-23T01:57:40.364Z,3.80
2022-09-23T02:00:12.762Z,3.73
2022-09-23T02:02:49.607Z,3.73
2022-09-23T02:05:23.367Z,3.74
2022-09-23T02:07:57.991Z,3.60
2022-09-23T02:10:31.468Z,3.53
2022-09-23T02:13:05.416Z,3.75
2022-09-23T02:15:40.208Z,3.69
2022-09-23T02:18:15.325Z,3.54
2022-09-23T02:20:44.545Z,3.61
2022-09-23T02:23:15.849Z,3.73
2022-09-23T02:26:04.101Z,3.60
2022-09-23T02:28:37.732Z,3.48
2022-09-23T02:31:12.156Z,3.48
2022-09-23T02:33:47.125Z,3.38
2022-09-23T02:36:26.081Z,3.59
2022-09-23T02:38:58.352Z,3.39
2022-09-23T02:41:32.314Z,3.14
2022-09-23T02:44:06.222Z,3.26
2022-09-23T02:46:35.354Z,3.38
2022-09-23T02:49:11.137Z,3.20
2022-09-23T02:51:41.159Z,3.24
2022-09-23T02:54:14.880Z,3.32
2022-09-23T02:56:43.353Z,3.25
2022-09-23T02:59:13.733Z,3.33
2022-09-23T03:01:56.332Z,3.12
2022-09-23T03:04:36.392Z,3.30
2022-09-23T03:07:11.633Z,3.22
2022-09-23T03:09:48.578Z,3.25
2022-09-23T03:12:35.976Z,3.24
2022-09-23T03:15:17.760Z,3.08
2022-09-23T03:17:53.738Z,3.08
2022-09-23T03:20:30.250Z,3.22
2022-09-23T03:23:02.561Z,3.06
2022-09-23T03:25:33.675Z,3.02
2022-09-23T03:28:02.712Z,3.01
2022-09-23T03:30:35.543Z,3.12
2022-09-23T03:33:06.873Z,3.23
2022-09-23T03:35:57.885Z,3.19
2022-09-23T03:38:31.256Z,3.18
2022-09-23T03:41:02.899Z,2.90
2022-09-23T03:43:36.565Z,2.90
2022-09-23T03:46:08.747Z,2.91
2022-09-23T03:48:37.020Z,2.81
2022-09-23T03:51:21.645Z,2.71
2022-09-23T03:53:50.248Z,2.78
2022-09-23T03:56:18.428Z,2.88
2022-09-23T03:58:46.604Z,2.88
2022-09-23T04:01:15.791Z,2.81
2022-09-23T04:03:44.007Z,2.54
2022-09-23T04:06:13.912Z,2.41
2022-09-23T04:08:42.048Z,2.49
2022-09-23T04:11:10.175Z,2.65
2022-09-23T04:13:38.299Z,2.69
2022-09-23T04:16:06.829Z,2.73
2022-09-23T04:18:35.165Z,2.65
2022-09-23T04:21:03.291Z,2.58
2022-09-23T04:23:32.770Z,2.60
2022-09-23T04:26:00.928Z,2.37
2022-09-23T04:28:29.387Z,2.46
2022-09-23T04:30:57.897Z,2.58
2022-09-23T04:33:26.942Z,2.56
2022-09-23T04:35:56.832Z,2.52
2022-09-23T04:38:25.371Z,2.53
2022-09-23T04:40:54.965Z,2.55
2022-09-23T04:43:24.031Z,2.61
2022-09-23T04:46:00.414Z,2.82
2022-09-23T04:48:28.887Z,2.65
2022-09-23T04:51:04.033Z,2.67
2022-09-23T04:53:32.323Z,2.55
2022-09-23T04:56:06.120Z,2.48
2022-09-23T04:58:34.675Z,2.45
2022-09-23T05:01:10.100Z,2.64
2022-09-23T05:03:38.781Z,2.57
2022-09-23T05:06:07.871Z,2.66
2022-09-23T05:08:36.223Z,2.39
2022-09-23T05:11:06.568Z,2.44
2022-09-23T05:13:35.349Z,2.66
2022-09-23T05:16:06.231Z,2.75
2022-09-23T05:18:35.998Z,2.65
2022-09-23T05:21:05.090Z,2.66
2022-09-23T05:23:33.322Z,2.82
2022-09-23T05:26:04.528Z,2.84
2022-09-23T05:28:35.815Z,2.84
2022-09-23T05:31:05.321Z,2.93
2022-09-23T05:33:34.393Z,3.06
2022-09-23T05:36:03.088Z,2.99
2022-09-23T05:38:32.752Z,3.28
2022-09-23T05:41:03.164Z,3.30
2022-09-23T05:43:31.761Z,3.40
2022-09-23T05:46:08.149Z,3.42
2022-09-23T05:48:38.084Z,3.53
2022-09-23T05:51:09.098Z,3.46
2022-09-23T05:53:38.110Z,3.84
2022-09-23T05:56:07.178Z,3.77
2022-09-23T05:58:35.503Z,4.00
2022-09-23T06:01:11.474Z,4.10
2022-09-23T06:03:40.092Z,4.43
2022-09-23T06:06:14.501Z,4.56
2022-09-23T06:08:43.068Z,4.89
2022-09-23T06:11:12.367Z,4.83
2022-09-23T06:13:41.365Z,5.07
2022-09-23T06:16:13.615Z,5.33
2022-09-23T06:18:42.849Z,5.53
2022-09-23T06:21:14.314Z,5.56
2022-09-23T06:23:42.716Z,5.72
2022-09-23T06:26:12.592Z,6.19
2022-09-23T06:28:42.950Z,6.52
2022-09-23T06:31:15.421Z,6.45
2022-09-23T06:33:45.293Z,6.53
2022-09-23T06:36:25.109Z,6.85
2022-09-23T06:39:02.816Z,6.87
2022-09-23T06:41:30.956Z,6.83
2022-09-23T06:43:59.593Z,7.15
2022-09-23T06:46:29.405Z,7.54
2022-09-23T06:48:57.638Z,7.43
2022-09-23T06:51:25.759Z,7.63
2022-09-23T06:53:53.913Z,7.84
2022-09-23T06:56:22.972Z,7.90
2022-09-23T06:58:53.088Z,8.02
2022-09-23T07:01:22.249Z,8.23
2022-09-23T07:03:52.052Z,8.52
2022-09-23T07:06:20.267Z,8.63
2022-09-23T07:08:48.466Z,8.91
2022-09-23T07:11:19.372Z,9.09
2022-09-23T07:13:47.508Z,9.35
2022-09-23T07:16:15.699Z,9.43
2022-09-23T07:18:44.317Z,9.49
2022-09-23T07:21:16.064Z,9.74
2022-09-23T07:23:44.459Z,9.86
2022-09-23T07:26:13.365Z,10.10
2022-09-23T07:28:41.719Z,10.35
2022-09-23T07:31:11.812Z,10.41
2022-09-23T07:33:44.081Z,10.68
2022-09-23T07:36:18.469Z,10.76
2022-09-23T07:38:47.555Z,10.72
2022-09-23T07:41:17.772Z,10.90
2022-09-23T07:43:46.584Z,11.14
2022-09-23T07:46:17.547Z,11.14
2022-09-23T07:48:47.148Z,11.35
2022-09-23T07:51:20.233Z,11.52
2022-09-23T07:53:49.371Z,11.46
2022-09-23T07:56:19.313Z,11.59
2022-09-23T07:59:00.022Z,11.80
2022-09-23T08:01:31.222Z,12.03
2022-09-23T08:04:03.273Z,12.18
2022-09-23T08:06:33.605Z,12.15
2022-09-23T08:09:02.677Z,12.53
2022-09-23T08:11:31.294Z,12.83
2022-09-23T08:13:59.594Z,12.98
2022-09-23T08:16:27.807Z,13.03
2022-09-23T08:18:56.036Z,13.26
2022-09-23T08:21:24.269Z,13.28
2022-09-23T08:23:53.725Z,13.46
2022-09-23T08:26:22.562Z,13.66
2022-09-23T08:28:54.491Z,13.67
2022-09-23T08:31:23.545Z,13.82
2022-09-23T08:33:55.125Z,13.53
2022-09-23T08:36:23.889Z,13.90
2022-09-23T08:38:54.308Z,13.95
2022-09-23T08:41:30.463Z,13.99
2022-09-23T08:44:03.138Z,14.05
2022-09-23T08:46:36.076Z,13.99
2022-09-23T08:49:06.569Z,14.08
2022-09-23T08:51:40.833Z,14.27
2022-09-23T08:54:12.036Z,14.32
2022-09-23T08:56:43.542Z,14.11
2022-09-23T08:59:19.102Z,14.45
2022-09-23T09:01:51.400Z,14.89
2022-09-23T09:04:23.886Z,14.90
2022-09-23T09:07:12.477Z,14.89
2022-09-23T09:09:52.197Z,14.71
2022-09-23T09:12:25.167Z,14.88
2022-09-23T09:14:59.140Z,14.88
2022-09-23T09:17:35.324Z,14.72
2022-09-23T09:20:18.776Z,14.88
2022-09-23T09:22:54.301Z,14.51
2022-09-23T09:25:34.335Z,14.81
2022-09-23T09:28:06.018Z,14.95
2022-09-23T09:30:36.155Z,14.90
2022-09-23T09:33:09.749Z,14.95
2022-09-23T09:35:42.976Z,15.13
2022-09-23T09:38:11.369Z,15.06
2022-09-23T09:40:47.464Z,15.18
2022-09-23T09:43:21.696Z,15.12
2022-09-23T09:46:02.060Z,15.23
2022-09-23T09:48:37.805Z,15.16
2022-09-23T09:51:19.394Z,15.05
2022-09-23T09:53:47.579Z,15.14
2022-09-23T09:56:18.661Z,15.26
2022-09-23T09:58:49.605Z,15.28
2022-09-23T10:01:22.649Z,15.47
2022-09-23T10:03:56.866Z,15.27
2022-09-23T10:06:27.096Z,15.51
2022-09-23T10:09:14.751Z,15.43
2022-09-23T10:12:03.673Z,15.44
2022-09-23T10:14:31.808Z,15.52
2022-09-23T10:17:05.599Z,15.57
2022-09-23T10:19:36.605Z,15.87
2022-09-23T10:22:09.691Z,15.90
2022-09-23T10:24:37.947Z,15.68
2022-09-23T10:27:11.818Z,15.11
2022-09-23T10:29:41.841Z,15.34
2022-09-23T10:32:25.664Z,15.14
2022-09-23T10:34:56.958Z,15.64
2022-09-23T10:37:33.844Z,16.21
2022-09-23T10:40:31.079Z,16.19
2022-09-23T10:43:37.377Z,15.75
2022-09-23T10:46:26.598Z,15.85
2022-09-23T10:49:12.200Z,15.74
2022-09-23T10:51:48.573Z,15.95
2022-09-23T10:54:27.344Z,15.67
2022-09-23T10:57:02.819Z,15.92
2022-09-23T10:59:56.224Z,16.21
2022-09-23T11:02:40.573Z,15.87
2022-09-23T11:05:35.962Z,15.54
2022-09-23T11:08:28.766Z,15.93
2022-09-23T11:11:13.560Z,15.79
2022-09-23T11:13:54.961Z,15.60
2022-09-23T11:16:36.848Z,15.33
2022-09-23T11:19:32.322Z,15.44
2022-09-23T11:22:22.392Z,15.65
2022-09-23T11:25:03.481Z,16.19
2022-09-23T11:27:43.688Z,16.06
2022-09-23T11:30:14.151Z,16.33
2022-09-23T11:33:18.301Z,16.75
2022-09-23T11:35:51.295Z,16.88
2022-09-23T11:38:25.905Z,16.93
2022-09-23T11:41:00.113Z,17.14
2022-09-23T11:43:33.472Z,17.11
2022-09-23T11:46:05.963Z,16.84
2022-09-23T11:48:42.473Z,16.75
2022-09-23T11:51:16.057Z,16.51
2022-09-23T11:53:47.994Z,16.41
2022-09-23T11:56:34.239Z,16.11
2022-09-23T11:59:11.496Z,16.16
2022-09-23T12:01:45.981Z,16.25
2022-09-23T12:04:23.933Z,16.33
2022-09-23T12:06:59.664Z,16.19
2022-09-23T12:09:57.410Z,16.26
2022-09-23T12:12:31.056Z,16.38
2022-09-23T12:15:05.678Z,16.52
2022-09-23T12:17:56.841Z,16.65
2022-09-23T12:20:54.587Z,16.68
2022-09-23T12:23:55.528Z,16.88
2022-09-23T12:26:26.561Z,16.31
2022-09-23T12:29:01.181Z,16.47
2022-09-23T12:31:33.040Z,16.67
2022-09-23T12:34:17.651Z,16.71
2022-09-23T12:36:47.702Z,16.84
2022-09-23T12:39:18.512Z,16.82
2022-09-23T12:41:52.183Z,16.43
2022-09-23T12:44:33.237Z,16.50
2022-09-23T12:47:37.729Z,16.51
2022-09-23T12:50:39.376Z,16.34
2022-09-23T12:53:52.771Z,16.32
2022-09-23T12:56:25.364Z,16.81
2022-09-23T12:59:14.016Z,16.93
2022-09-23T13:01:43.042Z,16.43
2022-09-23T13:04:48.689Z,16.38
2022-09-23T13:07:19.058Z,16.62
2022-09-23T13:09:50.610Z,16.40
2022-09-23T13:12:25.195Z,16.37
2022-09-23T13:14:58.069Z,16.29
2022-09-23T13:17:31.704Z,15.97
2022-09-23T13:20:02.463Z,16.19
2022-09-23T13:23:07.948Z,16.30
2022-09-23T13:25:42.961Z,16.17
2022-09-23T13:28:26.264Z,16.06
2022-09-23T13:30:54.804Z,15.98
2022-09-23T13:33:35.266Z,15.80
2022-09-23T13:36:06.718Z,15.93
2022-09-23T13:38:35.468Z,16.06
2022-09-23T13:41:08.555Z,16.00
2022-09-23T13:43:42.952Z,15.58
2022-09-23T13:46:14.231Z,15.98
2022-09-23T13:48:45.663Z,15.97
2022-09-23T13:51:21.904Z,15.87
2022-09-23T13:53:54.382Z,15.73
2022-09-23T13:56:24.073Z,15.76
2022-09-23T13:58:56.116Z,15.79
2022-09-23T14:01:32.275Z,15.73
2022-09-23T14:04:02.161Z,15.66
2022-09-23T14:06:31.799Z,15.72
2022-09-23T14:09:02.320Z,15.84
2022-09-23T14:11:33.120Z,15.86
2022-09-23T14:14:07.869Z,15.87
2022-09-23T14:16:39.598Z,15.68
2022-09-23T14:19:08.776Z,15.71
2022-09-23T14:21:38.625Z,15.71
2022-09-23T14:24:18.517Z,15.79
2022-09-23T14:26:49.580Z,15.77
2022-09-23T14:29:21.793Z,15.78
2022-09-23T14:31:57.554Z,15.77
2022-09-23T14:34:43.935Z,15.77
2022-09-23T14:37:42.603Z,15.83
2022-09-23T14:40:15.069Z,15.80
2022-09-23T14:42:46.367Z,15.86
2022-09-23T14:45:22.489Z,15.93
2022-09-23T14:47:53.609Z,15.94
2022-09-23T14:50:47.353Z,15.83
2022-09-23T14:53:35.148Z,15.96
2022-09-23T14:56:19.301Z,15.54
2022-09-23T14:58:58.888Z,15.56
2022-09-23T15:01:35.842Z,15.61
2022-09-23T15:04:17.048Z,15.64
2022-09-23T15:06:55.264Z,15.86
2022-09-23T15:09:26.359Z,15.90
2022-09-23T15:11:58.494Z,15.92
2022-09-23T15:14:44.883Z,15.73
2022-09-23T15:17:25.379Z,15.90
2022-09-23T15:19:58.453Z,15.85
2022-09-23T15:22:27.266Z,15.99
2022-09-23T15:25:08.967Z,15.95
2022-09-23T15:27:37.141Z,16.03
2022-09-23T15:30:15.847Z,15.88
2022-09-23T15:32:46.423Z,15.89
2022-09-23T15:35:16.353Z,15.32
2022-09-23T15:37:45.988Z,15.39
2022-09-23T15:40:20.898Z,15.25
2022-09-23T15:42:51.565Z,15.11
2022-09-23T15:45:22.526Z,14.95
2022-09-23T15:47:52.447Z,14.81
2022-09-23T15:50:20.875Z,14.69
2022-09-23T15:52:49.018Z,14.53
2022-09-23T15:55:23.581Z,14.44
2022-09-23T15:57:51.767Z,14.28
2022-09-23T16:00:21.286Z,14.09
2022-09-23T16:02:53.306Z,13.93
2022-09-23T16:05:27.093Z,13.67
2022-09-23T16:07:55.210Z,13.48
2022-09-23T16:10:24.722Z,13.42
2022-09-23T16:12:54.997Z,13.11
2022-09-23T16:15:24.746Z,13.05
2022-09-23T16:17:55.272Z,12.86
2022-09-23T16:20:24.179Z,12.77
2022-09-23T16:22:55.905Z,12.75
2022-09-23T16:25:28.140Z,12.74
2022-09-23T16:27:57.127Z,12.59
2022-09-23T16:30:25.833Z,12.47
2022-09-23T16:32:55.805Z,12.41
2022-09-23T16:35:26.245Z,12.29
2022-09-23T16:37:55.705Z,12.23
2022-09-23T16:40:26.408Z,12.12
2022-09-23T16:42:55.901Z,12.17
2022-09-23T16:45:24.117Z,12.19
2022-09-23T16:47:53.005Z,11.96
2022-09-23T16:50:24.234Z,11.93
2022-09-23T16:52:55.166Z,11.80
2022-09-23T16:55:25.684Z,11.62
2022-09-23T16:57:54.925Z,11.66
2022-09-23T17:00:41.293Z,11.67
2022-09-23T17:03:35.951Z,11.63
2022-09-23T17:06:08.225Z,11.48
2022-09-23T17:08:36.476Z,11.30
2022-09-23T17:11:05.358Z,11.20
2022-09-23T17:13:34.045Z,11.16
2022-09-23T17:16:02.696Z,11.14
2022-09-23T17:18:31.453Z,11.21
2022-09-23T17:21:01.689Z,11.16
2022-09-23T17:23:32.380Z,11.13
2022-09-23T17:26:00.853Z,10.87
2022-09-23T17:28:30.069Z,10.61
2022-09-23T17:30:59.289Z,10.79
2022-09-23T17:33:28.976Z,10.85
2022-09-23T17:35:59.107Z,10.91
2022-09-23T17:38:29.288Z,10.72
2022-09-23T17:41:01.316Z,10.70
2022-09-23T17:43:31.505Z,10.84
2022-09-23T17:46:05.183Z,10.80
2022-09-23T17:48:35.715Z,10.58
2022-09-23T17:51:05.851Z,10.57
2022-09-23T17:53:35.202Z,10.55
2022-09-23T17:56:07.139Z,10.28
2022-09-23T17:58:37.465Z,10.48
2022-09-23T18:01:06.172Z,10.45
2022-09-23T18:03:34.341Z,10.53
2022-09-23T18:06:10.164Z,10.48
2022-09-23T18:08:39.001Z,10.45
2022-09-23T18:11:17.595Z,10.26
2022-09-23T18:13:50.223Z,10.19
2022-09-23T18:16:19.228Z,10.27
2022-09-23T18:18:51.415Z,10.24
2022-09-23T18:21:20.059Z,10.01
2022-09-23T18:23:48.480Z,9.85
2022-09-23T18:26:19.333Z,9.86
2022-09-23T18:28:48.083Z,9.90
2022-09-23T18:31:17.079Z,9.57
2022-09-23T18:33:50.284Z,9.61
2022-09-23T18:36:18.741Z,9.65
2022-09-23T18:38:47.157Z,9.76
2022-09-23T18:41:15.967Z,9.73
2022-09-23T18:43:48.584Z,9.71
2022-09-23T18:46:18.586Z,9.58
2022-09-23T18:49:04.323Z,9.58
2022-09-23T18:51:34.857Z,9.58
2022-09-23T18:54:05.325Z,9.68
2022-09-23T18:56:39.629Z,9.77
2022-09-23T18:59:10.617Z,9.58
2022-09-23T19:01:38.911Z,9.43
2022-09-23T19:04:07.792Z,9.48
2022-09-23T19:06:37.367Z,9.49
2022-09-23T19:09:07.104Z,9.40
2022-09-23T19:11:36.481Z,9.51
2022-09-23T19:14:06.635Z,9.45
2022-09-23T19:16:37.055Z,9.39
2022-09-23T19:19:06.461Z,9.34
2022-09-23T19:21:35.706Z,9.38
2022-09-23T19:24:06.219Z,9.29
2022-09-23T19:26:37.475Z,9.13
2022-09-23T19:29:08.250Z,9.26
2022-09-23T19:31:40.422Z,9.27
2022-09-23T19:34:13.049Z,9.00
2022-09-23T19:36:43.218Z,9.13
2022-09-23T19:39:17.131Z,9.02
2022-09-23T19:41:46.117Z,9.06
2022-09-23T19:44:15.249Z,8.95
2022-09-23T19:46:55.137Z,8.70
2022-09-23T19:49:25.545Z,8.80
2022-09-23T19:51:55.848Z,8.89
2022-09-23T19:54:26.884Z,8.74
2022-09-23T19:56:55.555Z,8.56
2022-09-23T19:59:23.731Z,8.68
2022-09-23T20:01:53.305Z,8.84
2022-09-23T20:04:22.357Z,8.70
2022-09-23T20:06:50.544Z,8.69
2022-09-23T20:09:18.669Z,8.74
2022-09-23T20:11:46.818Z,8.79
2022-09-23T20:14:15.180Z,8.73
2022-09-23T20:16:43.495Z,8.84
2022-09-23T20:19:14.028Z,8.65
2022-09-23T20:21:42.153Z,8.92
2022-09-23T20:24:12.024Z,8.84
2022-09-23T20:27:12.489Z,8.79
2022-09-23T20:29:40.641Z,8.60
2022-09-23T20:32:08.905Z,8.60
2022-09-23T20:34:39.316Z,8.77
2022-09-23T20:37:08.394Z,8.88
2022-09-23T20:39:36.635Z,8.86
2022-09-23T20:42:07.984Z,8.74
2022-09-23T20:44:36.126Z,8.72
2022-09-23T20:47:04.681Z,8.91
2022-09-23T20:49:34.129Z,8.86
2022-09-23T20:52:04.053Z,9.00
2022-09-23T20:54:32.177Z,8.95
2022-09-23T20:57:01.315Z,8.80
2022-09-23T20:59:29.453Z,8.80
2022-09-23T21:01:58.121Z,8.84
2022-09-23T21:04:27.090Z,8.87
2022-09-23T21:06:55.910Z,9.00
2022-09-23T21:09:27.073Z,8.90
2022-09-23T21:11:55.474Z,8.77
2022-09-23T21:14:23.848Z,8.89
2022-09-23T21:16:52.803Z,8.81
2022-09-23T21:19:21.280Z,8.68
2022-09-23T21:21:49.712Z,8.51
2022-09-23T21:24:48.738Z,8.53
2022-09-23T21:27:07.398Z,8.57
2022-09-23T21:29:35.543Z,8.57
2022-09-23T21:32:03.820Z,8.63
2022-09-23T21:34:32.070Z,8.66
2022-09-23T21:37:00.294Z,8.70
2022-09-23T21:39:28.440Z,8.62
2022-09-23T21:41:56.604Z,8.50
2022-09-23T21:44:26.377Z,8.65
2022-09-23T21:46:54.681Z,8.51
2022-09-23T21:49:23.055Z,8.45
2022-09-23T21:51:55.104Z,8.59
2022-09-23T21:54:23.260Z,8.50
2022-09-23T21:56:51.402Z,8.64
2022-09-23T21:59:19.576Z,8.63
2022-09-23T22:01:54.071Z,8.61
2022-09-23T22:04:22.872Z,8.79
2022-09-23T22:06:51.160Z,8.61
2022-09-23T22:09:20.865Z,8.56
2022-09-23T22:12:09.847Z,8.41
2022-09-23T22:14:39.113Z,8.44
2022-09-23T22:17:11.439Z,8.55
2022-09-23T22:19:45.970Z,8.52
2022-09-23T22:22:17.596Z,8.70
2022-09-23T22:24:47.270Z,8.59
2022-09-23T22:27:17.717Z,8.73
2022-09-23T22:30:03.478Z,8.48
2022-09-23T22:32:41.318Z,8.39
2022-09-23T22:35:10.936Z,8.51
2022-09-23T22:37:39.253Z,8.56
2022-09-23T22:40:10.105Z,8.62
2022-09-23T22:42:38.923Z,8.57
2022-09-23T22:45:08.557Z,8.42
2022-09-23T22:47:40.265Z,8.51
2022-09-23T22:50:10.454Z,8.63
2022-09-23T22:52:38.667Z,8.59
2022-09-23T22:55:08.329Z,8.52
2022-09-23T22:57:36.655Z,8.33
2022-09-23T23:00:05.226Z,8.44
2022-09-23T23:02:33.342Z,8.80
2022-09-23T23:05:02.835Z,8.96
2022-09-23T23:07:32.071Z,8.72
2022-09-23T23:10:00.226Z,8.74
2022-09-23T23:12:28.367Z,8.72
2022-09-23T23:14:56.561Z,8.72
2022-09-23T23:17:24.667Z,8.66
2022-09-23T23:19:53.725Z,8.89
2022-09-23T23:22:23.190Z,8.87
2022-09-23T23:24:52.708Z,8.91
2022-09-23T23:27:20.850Z,8.72
2022-09-23T23:29:49.066Z,8.58
2022-09-23T23:32:17.701Z,8.74
2022-09-23T23:34:46.140Z,8.74
2022-09-23T23:37:17.634Z,8.59
2022-09-23T23:39:49.589Z,8.55
2022-09-23T23:42:17.721Z,8.52
2022-09-23T23:44:45.908Z,8.53
2022-09-23T23:47:14.060Z,8.52
2022-09-23T23:49:42.217Z,8.39
2022-09-23T23:52:10.706Z,8.51
2022-09-23T23:54:38.931Z,8.40
2022-09-23T23:57:08.766Z,8.48
2022-09-23T23:59:37.304Z,8.44
